Main page
METAR-TAF:

METAR-TAF

Airports :

North Bay/Jack Garland Airport

North Bay, Ontario, Canada

latitude: 46-21N, longitude: 079-26W, elevation: 358 m

Current weather observation

The report was made 1 hour and 8 minutes ago, at 15:00 UTC
Wind 3 kt from variable directions
Temperature 13°C
Humidity 47%
Pressure 1023 hPa
Visibility: 48.3 km
Few clouds at a height of 4400 ft
Few clouds at a height of 28000 ft

METAR: CYYB 151500Z VRB03KT 30SM FEW044 FEW280 13/02 A3022 RMK CU1CI1 CU TR SLP242

Time: 12:08 (16:08 UTC)

Forecast

The report was made 2 hours and 28 minutes ago, at 13:40 UTC
Forecast valid from 15 at 14 UTC to 16 at 02 UTC
Wind 6 kt from the East/Northeast
Visibility: 10 km
Clear sky
Becoming
from 15 at 15 UTC to 15 at 17 UTC
Wind 10 kt from the West/Southwest
Becoming
from 15 at 22 UTC to 15 at 24 UTC
Wind 3 kt from variable directions

TAF: CYYB 151340Z 1514/1602 07006KT P6SM SKC BECMG 1515/1517 25010KT BECMG 1522/1524 VRB03KT RMK NXT FCST BY 152000Z

Weather observations and forecasts of more than 4000 airports (METAR and TAF reports).

The available stations are represented by yellow and red dots on the map.

Hover mouse over dot to see the name of the station.

Then click to see weather observations and forecasts.

To change the map : click on the green buttons with a black cross to zoom in, on the green button with a dash to zoom out, or on the green arrows for adjacent maps.


METAR-TAF: